Newald, Wisconsin
Current Conditions -  °F | °C
As of 10:55 AM on Friday 28 Nov 2014 (Local Time) from KEGV Reporting Station
Light Snow Light Snow  
Wind Chill: 11°   Ceiling: 1000
Heat Index: 11°   Visibility: 0.75mi
Dew Point:   Wind: 0mph
Humidity: 79%   Direction: NA
Pressure: 30.01"   Gusts: NA
Location:  45.724°N, 88.8585°W
Report Text: KEGV 281655Z AUTO 00000KT 3/4SM -SN OVC010 M12/M15 A3001 RMK AO2 T11171147
Loading
Personal Weather Stations






























Interactive Weather Map New forecast layout! Learn more

10-Day Weather Forecast

Advertisements
Track Severe Weather on mobile